Time;durP1;ratioP1;P1;durP2;ratioP2;P2;SDS_P1;SDS_P2;PMS_P1;PMS_P2;Temp;Humidity;BMP_temperature;BMP_pressure;BME280_temperature;BME280_humidity;BME280_pressure;Samples;Min_cycle;Max_cycle;Signal;HPM_P1;HPM_P2
2021/04/23 00:01:20;;;;;;;15.50;6.13;;;;;;;;;;5036776;28;20756;-71
2021/04/23 00:03:50;;;;;;;12.30;6.10;;;;;;;;;;5036673;28;20463;-70
2021/04/23 00:06:19;;;;;;;9.77;5.10;;;;;;;;;;5036414;28;20542;-70
2021/04/23 00:08:51;;;;;;;20.33;6.27;;;;;;;;;;5017313;28;20674;-70
2021/04/23 00:11:19;;;;;;;15.27;6.40;;;;;;;;;;5017577;28;20466;-70
2021/04/23 00:13:46;;;;;;;16.23;5.67;;;;;;;;;;5029744;28;20757;-71
2021/04/23 00:16:15;;;;;;;7.17;4.13;;;;;;;;;;5037025;28;20940;-71
2021/04/23 00:18:42;;;;;;;11.43;5.70;;;;;;;;;;5036343;28;20462;-70
2021/04/23 00:21:10;;;;;;;12.63;5.13;;;;;;;;;;5027162;28;20522;-71
2021/04/23 00:23:38;;;;;;;13.93;5.07;;;;;;;;;;5029601;28;20763;-71
2021/04/23 00:26:06;;;;;;;10.33;5.10;;;;;;;;;;5036567;28;20855;-71
2021/04/23 00:28:34;;;;;;;14.13;6.17;;;;;;;;;;5036926;28;20494;-71
2021/04/23 00:31:03;;;;;;;10.07;4.30;;;;;;;;;;5036289;28;20455;-70
2021/04/23 00:33:31;;;;;;;20.07;4.47;;;;;;;;;;5037240;28;21324;-71
2021/04/23 00:36:02;;;;;;;13.13;5.70;;;;;;;;;;5037030;28;20497;-71
2021/04/23 00:38:30;;;;;;;17.37;5.00;;;;;;;;;;5036921;28;20462;-71
2021/04/23 00:40:58;;;;;;;15.17;5.70;;;;;;;;;;5036588;28;20479;-71
2021/04/23 00:43:27;;;;;;;11.43;5.23;;;;;;;;;;5036315;28;20532;-70
2021/04/23 00:45:55;;;;;;;12.83;5.90;;;;;;;;;;5040496;28;20458;-70
2021/04/23 00:48:23;;;;;;;12.00;4.67;;;;;;;;;;5040731;28;20466;-73
2021/04/23 00:50:53;;;;;;;9.40;4.50;;;;;;;;;;5040749;28;20790;-71
2021/04/23 00:53:21;;;;;;;14.90;4.50;;;;;;;;;;5040679;28;20505;-71
2021/04/23 00:55:49;;;;;;;9.23;4.33;;;;;;;;;;5040416;28;20548;-71
2021/04/23 00:58:17;;;;;;;12.83;5.30;;;;;;;;;;5040773;28;20887;-71
2021/04/23 01:00:46;;;;;;;8.00;4.30;;;;;;;;;;5039800;28;20505;-70
2021/04/23 01:03:14;;;;;;;9.10;3.93;;;;;;;;;;5035061;28;20559;-71
2021/04/23 01:05:41;;;;;;;17.00;4.80;;;;;;;;;;5020689;28;20529;-71
2021/04/23 01:08:12;;;;;;;10.17;4.53;;;;;;;;;;5021969;28;20483;-71
2021/04/23 01:10:40;;;;;;;10.73;4.63;;;;;;;;;;5040076;28;20512;-71
2021/04/23 01:13:07;;;;;;;8.80;4.20;;;;;;;;;;5039186;28;20516;-71
2021/04/23 01:15:35;;;;;;;10.03;4.37;;;;;;;;;;5039997;28;20458;-72
2021/04/23 01:18:02;;;;;;;9.43;4.40;;;;;;;;;;5040150;28;20466;-71
2021/04/23 01:20:29;;;;;;;11.93;4.60;;;;;;;;;;5039033;28;20537;-71
2021/04/23 01:22:58;;;;;;;10.13;4.80;;;;;;;;;;5039617;28;20458;-71
2021/04/23 01:25:25;;;;;;;11.30;5.20;;;;;;;;;;5039697;28;20918;-71
2021/04/23 01:27:53;;;;;;;8.90;4.73;;;;;;;;;;5039843;28;20741;-71
2021/04/23 01:30:21;;;;;;;21.80;5.07;;;;;;;;;;5040092;28;20483;-71
2021/04/23 01:32:49;;;;;;;7.63;4.80;;;;;;;;;;5041079;28;20517;-70
2021/04/23 01:35:20;;;;;;;7.57;5.73;;;;;;;;;;5040012;28;20470;-70
2021/04/23 01:37:47;;;;;;;9.17;4.57;;;;;;;;;;5040513;28;20459;-70
2021/04/23 01:40:16;;;;;;;9.77;5.13;;;;;;;;;;5039480;28;20458;-70
2021/04/23 01:42:44;;;;;;;15.83;4.77;;;;;;;;;;5039953;28;20792;-70
2021/04/23 01:45:12;;;;;;;7.43;3.47;;;;;;;;;;5040115;28;20506;-70
2021/04/23 01:47:40;;;;;;;12.97;5.13;;;;;;;;;;5039862;28;20454;-70
2021/04/23 01:50:09;;;;;;;20.50;6.00;;;;;;;;;;5039704;28;20890;-70
2021/04/23 01:52:36;;;;;;;9.00;4.60;;;;;;;;;;5039824;28;20624;-70
2021/04/23 01:55:04;;;;;;;9.13;4.33;;;;;;;;;;5039213;28;20485;-70
2021/04/23 01:57:33;;;;;;;11.20;4.13;;;;;;;;;;5039599;28;20470;-70
2021/04/23 02:00:00;;;;;;;9.07;4.87;;;;;;;;;;5031333;28;20471;-70
2021/04/23 02:02:27;;;;;;;14.27;4.47;;;;;;;;;;5021756;28;20525;-70
2021/04/23 02:04:55;;;;;;;14.30;4.73;;;;;;;;;;5035909;28;20463;-70
2021/04/23 02:07:22;;;;;;;12.53;4.73;;;;;;;;;;5038610;28;20454;-70
2021/04/23 02:09:53;;;;;;;18.23;5.63;;;;;;;;;;5039138;28;20485;-70
2021/04/23 02:12:20;;;;;;;9.17;5.37;;;;;;;;;;5039054;28;20565;-70
2021/04/23 02:14:49;;;;;;;10.07;3.43;;;;;;;;;;5039574;28;20493;-70
2021/04/23 02:17:18;;;;;;;13.50;4.57;;;;;;;;;;5027713;28;20463;-70
2021/04/23 02:19:46;;;;;;;10.20;3.87;;;;;;;;;;5022504;28;20480;-70
2021/04/23 02:22:16;;;;;;;9.00;3.73;;;;;;;;;;5019508;28;20732;-70
2021/04/23 02:24:43;;;;;;;6.13;3.40;;;;;;;;;;5033466;28;20463;-70
2021/04/23 02:27:11;;;;;;;9.43;5.20;;;;;;;;;;5039111;28;20458;-71
2021/04/23 02:29:38;;;;;;;6.13;3.50;;;;;;;;;;5034785;28;20776;-70
2021/04/23 02:32:07;;;;;;;17.70;4.40;;;;;;;;;;5019329;28;20483;-70
2021/04/23 02:34:35;;;;;;;6.10;3.30;;;;;;;;;;5037592;28;20471;-70
2021/04/23 02:37:02;;;;;;;7.70;4.70;;;;;;;;;;5039055;28;20521;-70
2021/04/23 02:39:29;;;;;;;13.00;4.37;;;;;;;;;;5037669;28;20485;-70
2021/04/23 02:41:57;;;;;;;10.63;3.97;;;;;;;;;;5039204;28;20451;-70
2021/04/23 02:44:25;;;;;;;10.90;4.17;;;;;;;;;;5038315;28;20734;-70
2021/04/23 02:46:52;;;;;;;13.47;3.80;;;;;;;;;;5019246;28;20590;-70
2021/04/23 02:49:21;;;;;;;13.00;5.60;;;;;;;;;;5028948;28;20467;-71
2021/04/23 02:51:49;;;;;;;6.57;3.30;;;;;;;;;;5038135;28;20455;-70
2021/04/23 02:54:17;;;;;;;8.67;3.80;;;;;;;;;;5026655;28;20855;-71
2021/04/23 02:56:44;;;;;;;7.77;3.77;;;;;;;;;;5038314;28;20546;-71
2021/04/23 02:59:12;;;;;;;13.47;4.20;;;;;;;;;;5038220;28;20459;-72
2021/04/23 03:01:43;;;;;;;14.17;4.30;;;;;;;;;;5037583;28;20455;-71
2021/04/23 03:04:13;;;;;;;11.40;4.13;;;;;;;;;;5036373;28;20470;-71
2021/04/23 03:06:42;;;;;;;14.90;6.63;;;;;;;;;;5037572;28;20497;-71
2021/04/23 03:09:10;;;;;;;10.20;4.13;;;;;;;;;;5034341;28;20887;-71
2021/04/23 03:11:40;;;;;;;13.63;5.23;;;;;;;;;;5031959;28;20458;-71
2021/04/23 03:14:11;;;;;;;14.03;4.13;;;;;;;;;;5027501;28;20486;-71
2021/04/23 03:16:45;;;;;;;13.53;4.50;;;;;;;;;;5037430;28;20470;-71
2021/04/23 03:19:13;;;;;;;8.57;2.87;;;;;;;;;;5027094;28;20466;-71
2021/04/23 03:21:41;;;;;;;10.83;4.77;;;;;;;;;;5038279;28;20470;-71
2021/04/23 03:24:10;;;;;;;11.70;4.60;;;;;;;;;;5037442;28;20533;-71
2021/04/23 03:26:38;;;;;;;9.57;3.40;;;;;;;;;;5037728;28;20467;-71
2021/04/23 03:29:06;;;;;;;9.90;4.00;;;;;;;;;;5037687;28;20470;-71
2021/04/23 03:31:33;;;;;;;11.27;3.63;;;;;;;;;;5036499;28;20874;-71
2021/04/23 03:34:01;;;;;;;13.30;5.03;;;;;;;;;;5037723;28;20547;-70
2021/04/23 03:36:28;;;;;;;10.30;4.30;;;;;;;;;;5037563;28;20459;-71
2021/04/23 03:38:55;;;;;;;8.93;3.70;;;;;;;;;;5037715;28;20459;-71
2021/04/23 03:41:25;;;;;;;7.90;4.00;;;;;;;;;;5037752;28;20477;-71
2021/04/23 03:43:53;;;;;;;14.83;4.20;;;;;;;;;;5037415;28;20459;-70
2021/04/23 03:46:20;;;;;;;9.90;4.00;;;;;;;;;;5037419;28;20459;-71
2021/04/23 03:48:48;;;;;;;9.50;3.43;;;;;;;;;;5037397;28;20529;-71
2021/04/23 03:51:16;;;;;;;11.43;4.70;;;;;;;;;;5037323;28;20459;-71
2021/04/23 03:53:44;;;;;;;15.37;3.90;;;;;;;;;;5037042;28;20747;-70
2021/04/23 03:59:01;;;;;;;8.10;3.50;;;;;;;;;;5028218;28;20447;-71
2021/04/23 04:01:30;;;;;;;9.30;5.30;;;;;;;;;;5017185;28;20491;-71
2021/04/23 04:03:58;;;;;;;7.80;3.20;;;;;;;;;;5016756;28;20791;-71
2021/04/23 04:06:25;;;;;;;8.30;4.70;;;;;;;;;;5016621;28;20521;-71
2021/04/23 04:08:52;;;;;;;15.50;4.07;;;;;;;;;;5031553;28;20465;-71
2021/04/23 04:11:20;;;;;;;20.10;5.07;;;;;;;;;;5037004;28;20455;-71
2021/04/23 04:13:47;;;;;;;13.60;4.03;;;;;;;;;;5037086;28;20499;-71
2021/04/23 04:16:15;;;;;;;8.20;3.50;;;;;;;;;;5036767;28;20734;-71
2021/04/23 04:18:45;;;;;;;6.60;2.43;;;;;;;;;;5034792;28;20443;-72
2021/04/23 04:21:13;;;;;;;10.37;4.13;;;;;;;;;;5036535;28;20471;-71
2021/04/23 04:23:40;;;;;;;10.37;4.00;;;;;;;;;;5035971;28;20466;-71
2021/04/23 04:26:07;;;;;;;7.17;3.77;;;;;;;;;;5036199;28;20471;-71
2021/04/23 04:28:35;;;;;;;9.00;3.60;;;;;;;;;;5036509;28;20455;-71
2021/04/23 04:31:02;;;;;;;5.70;3.27;;;;;;;;;;5036586;28;20745;-70
2021/04/23 04:33:31;;;;;;;8.07;3.30;;;;;;;;;;5035810;28;20490;-71
2021/04/23 04:35:59;;;;;;;7.33;3.93;;;;;;;;;;5035927;28;20474;-71
2021/04/23 04:38:26;;;;;;;7.03;3.67;;;;;;;;;;5035904;28;20462;-71
2021/04/23 04:40:53;;;;;;;9.60;4.17;;;;;;;;;;5035468;28;20474;-70
2021/04/23 04:43:21;;;;;;;11.47;4.63;;;;;;;;;;5035294;28;20459;-71
2021/04/23 04:45:49;;;;;;;14.37;3.67;;;;;;;;;;5036250;28;20492;-70
2021/04/23 04:48:17;;;;;;;6.53;2.83;;;;;;;;;;5036145;28;20875;-70
2021/04/23 04:50:46;;;;;;;11.60;4.03;;;;;;;;;;5034619;28;20478;-70
2021/04/23 04:53:16;;;;;;;7.07;3.17;;;;;;;;;;5034214;28;20514;-72
2021/04/23 04:55:48;;;;;;;10.07;3.47;;;;;;;;;;5035359;28;20474;-71
2021/04/23 04:58:17;;;;;;;5.80;3.07;;;;;;;;;;5034882;28;20458;-71
2021/04/23 05:00:44;;;;;;;5.77;2.07;;;;;;;;;;5034868;28;20469;-70
2021/04/23 05:03:15;;;;;;;5.03;2.80;;;;;;;;;;5034094;28;20570;-70
2021/04/23 05:05:42;;;;;;;6.20;3.30;;;;;;;;;;5034744;28;20821;-70
2021/04/23 05:08:11;;;;;;;7.07;2.50;;;;;;;;;;5033170;28;20764;-70
2021/04/23 05:10:39;;;;;;;7.37;2.60;;;;;;;;;;5034485;28;20910;-71
2021/04/23 05:13:06;;;;;;;14.67;3.23;;;;;;;;;;5033531;28;20961;-70
2021/04/23 05:15:34;;;;;;;5.80;2.70;;;;;;;;;;5034061;28;20761;-69
2021/04/23 05:20:59;;;;;;;11.77;3.60;;;;;;;;;;5031673;28;20979;-71
2021/04/23 05:23:27;;;;;;;12.00;4.07;;;;;;;;;;5034833;28;20818;-70
2021/04/23 05:25:55;;;;;;;3.17;1.73;;;;;;;;;;5034921;28;20462;-70
2021/04/23 05:28:22;;;;;;;9.63;4.40;;;;;;;;;;5034823;28;20451;-70
2021/04/23 05:30:50;;;;;;;7.77;3.10;;;;;;;;;;5036013;28;21190;-71
2021/04/23 05:33:17;;;;;;;3.33;1.93;;;;;;;;;;5038035;28;20672;-71
2021/04/23 05:35:45;;;;;;;10.70;3.80;;;;;;;;;;5037141;28;20474;-70
2021/04/23 05:38:13;;;;;;;7.70;3.27;;;;;;;;;;5032284;28;20455;-71
2021/04/23 05:40:45;;;;;;;7.47;2.53;;;;;;;;;;5030842;28;20471;-71
2021/04/23 05:43:25;;;;;;;13.60;3.10;;;;;;;;;;5036655;28;20470;-71
2021/04/23 05:46:06;;;;;;;6.27;2.87;;;;;;;;;;5036828;28;21046;-70
2021/04/23 05:48:34;;;;;;;9.13;2.93;;;;;;;;;;5036577;28;20846;-71
2021/04/23 05:51:01;;;;;;;8.20;3.57;;;;;;;;;;5038623;28;20458;-70
2021/04/23 05:53:29;;;;;;;6.27;3.00;;;;;;;;;;5039250;28;20498;-70
2021/04/23 05:55:57;;;;;;;11.23;3.40;;;;;;;;;;5035183;28;20471;-71
2021/04/23 05:58:25;;;;;;;12.57;3.57;;;;;;;;;;5037260;28;20509;-70
2021/04/23 06:00:54;;;;;;;5.23;2.77;;;;;;;;;;5035415;28;20463;-71
2021/04/23 06:03:21;;;;;;;9.03;2.20;;;;;;;;;;5035635;28;20553;-70
2021/04/23 06:05:49;;;;;;;7.53;1.97;;;;;;;;;;5037262;28;20474;-70
2021/04/23 06:08:36;;;;;;;7.80;2.60;;;;;;;;;;5036436;28;20450;-70
2021/04/23 06:11:05;;;;;;;9.77;1.80;;;;;;;;;;5038089;28;20544;-70
2021/04/23 06:13:34;;;;;;;10.60;2.10;;;;;;;;;;5035737;28;20940;-70
2021/04/23 06:16:05;;;;;;;5.47;2.40;;;;;;;;;;5037834;28;20572;-70
2021/04/23 06:18:37;;;;;;;6.97;2.27;;;;;;;;;;5036265;28;20859;-70
2021/04/23 06:21:27;;;;;;;8.33;1.80;;;;;;;;;;5034662;28;20468;-70
2021/04/23 06:23:56;;;;;;;9.27;1.90;;;;;;;;;;5018207;28;20483;-70
2021/04/23 06:26:27;;;;;;;2.63;1.97;;;;;;;;;;5017420;28;20463;-70
2021/04/23 06:28:57;;;;;;;12.33;2.60;;;;;;;;;;5017895;28;20452;-71
2021/04/23 06:31:26;;;;;;;9.83;3.03;;;;;;;;;;5037424;28;20443;-71
2021/04/23 06:33:54;;;;;;;9.27;2.70;;;;;;;;;;5037302;28;20569;-71
2021/04/23 06:36:24;;;;;;;13.07;4.03;;;;;;;;;;5036617;28;20729;-70
2021/04/23 06:38:53;;;;;;;5.17;1.70;;;;;;;;;;5036137;28;20549;-70
2021/04/23 06:41:22;;;;;;;7.30;3.00;;;;;;;;;;5036319;28;20450;-71
2021/04/23 06:46:54;;;;;;;6.80;1.83;;;;;;;;;;5037395;28;20449;-70
2021/04/23 06:49:21;;;;;;;4.33;2.20;;;;;;;;;;5037629;28;20447;-70
2021/04/23 06:51:49;;;;;;;8.30;2.40;;;;;;;;;;5037292;28;20455;-70
2021/04/23 06:54:16;;;;;;;11.30;2.83;;;;;;;;;;5035813;28;20492;-70
2021/04/23 06:56:43;;;;;;;8.30;2.00;;;;;;;;;;5037340;28;20458;-68
2021/04/23 06:59:10;;;;;;;5.70;2.40;;;;;;;;;;5035777;28;20470;-70
2021/04/23 07:01:38;;;;;;;6.80;2.20;;;;;;;;;;5037056;28;20533;-69
2021/04/23 07:04:06;;;;;;;11.47;1.93;;;;;;;;;;5034135;28;20777;-69
2021/04/23 07:06:38;;;;;;;9.50;2.20;;;;;;;;;;5037380;28;20462;-69
2021/04/23 07:09:07;;;;;;;8.70;2.33;;;;;;;;;;5036383;28;20458;-70
2021/04/23 07:11:34;;;;;;;9.50;3.17;;;;;;;;;;5035710;28;20474;-69
2021/04/23 07:14:01;;;;;;;4.30;1.70;;;;;;;;;;5035909;28;20524;-69
2021/04/23 07:16:29;;;;;;;10.60;3.63;;;;;;;;;;5035319;28;20462;-69
2021/04/23 07:18:57;;;;;;;10.50;3.37;;;;;;;;;;5036534;28;20459;-69
2021/04/23 07:21:25;;;;;;;9.53;2.60;;;;;;;;;;5034647;28;20711;-69
2021/04/23 07:23:53;;;;;;;11.40;1.80;;;;;;;;;;5037630;28;20469;-69
2021/04/23 07:26:20;;;;;;;3.97;1.90;;;;;;;;;;5036937;28;20502;-70
2021/04/23 07:28:47;;;;;;;3.60;1.40;;;;;;;;;;5037022;28;20466;-70
2021/04/23 07:31:15;;;;;;;11.67;3.23;;;;;;;;;;5037209;28;20883;-69
2021/04/23 07:33:42;;;;;;;9.87;2.37;;;;;;;;;;5036028;28;20560;-69
2021/04/23 07:36:10;;;;;;;9.50;2.60;;;;;;;;;;5035502;28;20499;-69
2021/04/23 07:38:42;;;;;;;3.93;2.20;;;;;;;;;;5036135;28;20778;-70
2021/04/23 07:41:10;;;;;;;8.23;2.47;;;;;;;;;;5036763;28;20758;-68
2021/04/23 07:43:37;;;;;;;10.17;2.60;;;;;;;;;;5036151;28;20454;-70
2021/04/23 07:46:05;;;;;;;6.27;1.67;;;;;;;;;;5036181;28;20474;-70
2021/04/23 07:48:36;;;;;;;6.20;2.20;;;;;;;;;;5032689;28;20471;-72
2021/04/23 07:51:09;;;;;;;6.73;2.80;;;;;;;;;;5016255;28;20452;-71
2021/04/23 07:54:10;;;;;;;16.73;4.70;;;;;;;;;;5016232;28;20907;-71
2021/04/23 07:56:43;;;;;;;15.33;2.60;;;;;;;;;;5022057;28;20476;-70
2021/04/23 07:59:13;;;;;;;6.80;2.30;;;;;;;;;;5034993;28;20450;-71
2021/04/23 08:01:41;;;;;;;7.20;2.90;;;;;;;;;;5033302;28;20466;-70
2021/04/23 08:04:09;;;;;;;4.83;1.80;;;;;;;;;;5035089;28;20455;-70
2021/04/23 08:06:36;;;;;;;6.90;2.20;;;;;;;;;;5026598;28;20467;-70
2021/04/23 08:09:04;;;;;;;8.80;2.70;;;;;;;;;;5021174;28;20525;-70
2021/04/23 08:11:31;;;;;;;12.00;2.50;;;;;;;;;;5015747;28;20471;-69
2021/04/23 08:14:00;;;;;;;9.73;2.60;;;;;;;;;;5017097;28;20487;-70
2021/04/23 08:16:27;;;;;;;10.10;3.83;;;;;;;;;;5036650;28;20471;-70
2021/04/23 08:18:54;;;;;;;4.53;1.83;;;;;;;;;;5037684;28;20470;-69
2021/04/23 08:21:23;;;;;;;7.87;1.73;;;;;;;;;;5032112;28;20810;-71
2021/04/23 08:23:55;;;;;;;12.10;2.23;;;;;;;;;;5035226;28;20469;-71
2021/04/23 08:26:24;;;;;;;7.07;1.60;;;;;;;;;;5017669;28;20447;-71
2021/04/23 08:28:52;;;;;;;7.53;1.70;;;;;;;;;;5015918;28;20812;-71
2021/04/23 08:31:21;;;;;;;8.77;2.47;;;;;;;;;;5016729;28;20900;-71
2021/04/23 08:33:53;;;;;;;7.00;1.37;;;;;;;;;;5033044;28;20573;-70
2021/04/23 08:36:21;;;;;;;9.67;3.13;;;;;;;;;;5033756;28;20473;-71
2021/04/23 08:38:49;;;;;;;15.90;4.70;;;;;;;;;;5033892;28;20908;-71
2021/04/23 08:41:18;;;;;;;9.00;1.97;;;;;;;;;;5034315;28;20467;-72
2021/04/23 08:43:46;;;;;;;4.60;1.40;;;;;;;;;;5035780;28;20455;-70
2021/04/23 08:46:13;;;;;;;4.20;1.70;;;;;;;;;;5034144;28;20647;-69
2021/04/23 08:48:43;;;;;;;14.50;2.10;;;;;;;;;;5034833;28;20529;-71
2021/04/23 08:51:23;;;;;;;5.77;1.90;;;;;;;;;;5034273;28;20462;-72
2021/04/23 08:53:52;;;;;;;6.33;1.37;;;;;;;;;;5032145;28;20521;-70
2021/04/23 08:56:21;;;;;;;9.67;3.00;;;;;;;;;;5020082;28;21031;-71
2021/04/23 08:58:49;;;;;;;10.53;2.40;;;;;;;;;;5032313;28;20471;-71
2021/04/23 09:01:23;;;;;;;4.43;1.77;;;;;;;;;;5034679;28;20879;-70
2021/04/23 09:03:51;;;;;;;4.97;1.77;;;;;;;;;;5024092;28;20511;-70
2021/04/23 09:06:24;;;;;;;6.50;3.30;;;;;;;;;;5036413;28;20475;-72
2021/04/23 09:09:02;;;;;;;8.13;2.37;;;;;;;;;;5038825;28;20893;-72
2021/04/23 09:11:31;;;;;;;5.00;2.27;;;;;;;;;;5036629;28;20466;-71
2021/04/23 09:13:59;;;;;;;6.23;2.90;;;;;;;;;;5032482;28;20498;-71
2021/04/23 09:16:27;;;;;;;9.30;2.77;;;;;;;;;;5038728;28;20528;-70
2021/04/23 09:19:15;;;;;;;9.10;3.17;;;;;;;;;;5038302;28;20524;-70
2021/04/23 09:21:46;;;;;;;5.07;1.93;;;;;;;;;;5037718;28;20462;-70
2021/04/23 09:24:20;;;;;;;9.47;1.80;;;;;;;;;;5038668;28;20505;-70
2021/04/23 09:26:48;;;;;;;7.77;4.80;;;;;;;;;;5038393;28;20450;-71
2021/04/23 09:29:23;;;;;;;13.17;1.90;;;;;;;;;;5035436;28;20455;-70
2021/04/23 09:31:51;;;;;;;5.63;2.50;;;;;;;;;;5018606;28;20463;-69
2021/04/23 09:34:19;;;;;;;10.40;2.60;;;;;;;;;;5017930;28;20581;-71
2021/04/23 09:36:48;;;;;;;13.77;2.60;;;;;;;;;;5028817;28;20451;-70
2021/04/23 09:39:17;;;;;;;5.77;2.67;;;;;;;;;;5036921;28;20569;-70
2021/04/23 09:41:45;;;;;;;4.00;1.40;;;;;;;;;;5036870;28;20454;-70
2021/04/23 09:44:26;;;;;;;6.77;2.03;;;;;;;;;;5037460;28;20842;-70
2021/04/23 09:46:58;;;;;;;3.60;1.53;;;;;;;;;;5037254;28;20554;-70
2021/04/23 09:49:26;;;;;;;3.83;1.47;;;;;;;;;;5038331;28;20490;-70
2021/04/23 09:51:54;;;;;;;4.33;1.30;;;;;;;;;;5036965;28;20489;-71
2021/04/23 09:54:22;;;;;;;11.53;2.10;;;;;;;;;;5037003;28;20494;-71
2021/04/23 09:56:53;;;;;;;5.93;1.50;;;;;;;;;;5037550;28;20504;-70
2021/04/23 09:59:25;;;;;;;6.50;2.53;;;;;;;;;;5038558;28;20479;-71
2021/04/23 10:01:59;;;;;;;7.80;1.70;;;;;;;;;;5030512;28;20537;-71
2021/04/23 10:04:33;;;;;;;15.07;2.50;;;;;;;;;;5017921;28;20496;-71
2021/04/23 10:07:08;;;;;;;7.77;2.67;;;;;;;;;;5017174;28;20467;-71
2021/04/23 10:09:37;;;;;;;8.80;2.50;;;;;;;;;;5032644;28;20537;-72
2021/04/23 10:12:10;;;;;;;7.10;2.73;;;;;;;;;;5036700;28;20769;-72
2021/04/23 10:14:39;;;;;;;5.53;2.43;;;;;;;;;;5037177;28;20494;-70
2021/04/23 10:17:08;;;;;;;4.90;1.80;;;;;;;;;;5035643;28;20463;-70
2021/04/23 10:19:37;;;;;;;8.30;2.03;;;;;;;;;;5036727;28;21013;-70
2021/04/23 10:22:08;;;;;;;5.20;2.17;;;;;;;;;;5036421;28;20616;-70
2021/04/23 10:24:36;;;;;;;17.80;3.10;;;;;;;;;;5036488;28;20458;-70
2021/04/23 10:27:06;;;;;;;7.73;3.20;;;;;;;;;;5038341;28;20454;-72
2021/04/23 10:29:39;;;;;;;8.37;3.00;;;;;;;;;;5027310;28;20474;-73
2021/04/23 10:32:08;;;;;;;5.40;2.27;;;;;;;;;;5038683;28;20467;-70
2021/04/23 10:34:42;;;;;;;5.03;2.30;;;;;;;;;;5037314;28;20490;-69
2021/04/23 10:37:11;;;;;;;7.43;2.43;;;;;;;;;;5037330;28;20474;-70
2021/04/23 10:39:41;;;;;;;11.20;2.63;;;;;;;;;;5037494;28;20458;-71
2021/04/23 10:42:30;;;;;;;6.63;1.83;;;;;;;;;;5035303;28;20470;-71
2021/04/23 10:45:01;;;;;;;11.50;3.63;;;;;;;;;;5037089;28;20490;-69
2021/04/23 10:47:34;;;;;;;6.17;2.57;;;;;;;;;;5039204;28;21058;-71
2021/04/23 10:50:11;;;;;;;11.60;2.40;;;;;;;;;;5031951;28;20483;-70
2021/04/23 10:52:57;;;;;;;3.93;2.03;;;;;;;;;;5037357;28;20486;-70
2021/04/23 10:55:38;;;;;;;8.90;2.60;;;;;;;;;;5030154;28;20462;-71
2021/04/23 10:58:06;;;;;;;6.43;1.73;;;;;;;;;;5036416;28;20462;-70
2021/04/23 11:00:35;;;;;;;5.33;1.97;;;;;;;;;;5036399;28;20470;-70
2021/04/23 11:03:20;;;;;;;6.90;1.77;;;;;;;;;;5035672;28;20879;-70
2021/04/23 11:05:49;;;;;;;5.87;2.20;;;;;;;;;;5034928;28;20474;-70
2021/04/23 11:08:17;;;;;;;6.50;1.77;;;;;;;;;;5035927;28;20549;-70
2021/04/23 11:11:02;;;;;;;6.73;2.30;;;;;;;;;;5030816;28;20544;-69
2021/04/23 11:13:31;;;;;;;7.17;2.97;;;;;;;;;;5017845;28;20534;-71
2021/04/23 11:16:17;;;;;;;5.70;1.53;;;;;;;;;;5016913;28;20509;-71
2021/04/23 11:18:45;;;;;;;8.87;2.70;;;;;;;;;;5023436;28;20470;-70
2021/04/23 11:21:30;;;;;;;9.33;2.30;;;;;;;;;;5037541;28;20458;-69
2021/04/23 11:24:15;;;;;;;4.67;1.90;;;;;;;;;;5028591;28;20883;-70
2021/04/23 11:27:03;;;;;;;11.30;2.40;;;;;;;;;;5033427;28;20863;-69
2021/04/23 11:29:31;;;;;;;7.37;3.13;;;;;;;;;;5037420;28;20594;-70
2021/04/23 11:32:19;;;;;;;11.10;3.80;;;;;;;;;;5034371;28;20773;-70
2021/04/23 11:34:47;;;;;;;6.07;2.33;;;;;;;;;;5036156;28;20451;-71
2021/04/23 11:37:15;;;;;;;7.07;2.80;;;;;;;;;;5034620;28;20474;-70
2021/04/23 11:39:45;;;;;;;7.57;2.10;;;;;;;;;;5033520;28;20747;-71
2021/04/23 11:42:15;;;;;;;10.30;2.70;;;;;;;;;;5033737;28;20450;-70
2021/04/23 11:44:49;;;;;;;6.53;1.70;;;;;;;;;;5035781;28;20466;-69
2021/04/23 11:47:18;;;;;;;8.67;2.90;;;;;;;;;;5037001;28;21135;-70
2021/04/23 11:49:45;;;;;;;8.30;1.67;;;;;;;;;;5035986;28;20902;-70
2021/04/23 11:52:13;;;;;;;2.90;2.00;;;;;;;;;;5036162;28;20467;-70
2021/04/23 11:54:43;;;;;;;5.23;2.03;;;;;;;;;;5035816;28;20487;-69
2021/04/23 11:57:28;;;;;;;9.67;2.10;;;;;;;;;;5033846;28;20493;-71
2021/04/23 11:59:59;;;;;;;13.33;3.23;;;;;;;;;;5033785;28;20579;-71
2021/04/23 12:02:42;;;;;;;8.60;2.50;;;;;;;;;;5034975;28;20746;-70
2021/04/23 12:05:25;;;;;;;4.60;2.30;;;;;;;;;;5035513;28;20462;-71
2021/04/23 12:07:55;;;;;;;7.93;2.43;;;;;;;;;;5034527;28;20463;-70
2021/04/23 12:10:33;;;;;;;10.27;2.67;;;;;;;;;;5033913;28;20894;-70
2021/04/23 12:13:01;;;;;;;12.23;3.43;;;;;;;;;;5036721;28;20547;-70
2021/04/23 12:15:33;;;;;;;7.43;3.10;;;;;;;;;;5034291;28;20450;-70
2021/04/23 12:18:02;;;;;;;7.67;2.60;;;;;;;;;;5035410;28;20867;-70
2021/04/23 12:20:31;;;;;;;6.97;2.43;;;;;;;;;;5034827;28;20734;-70
2021/04/23 12:23:00;;;;;;;9.97;2.10;;;;;;;;;;5033840;28;20462;-70
2021/04/23 12:25:34;;;;;;;5.77;2.70;;;;;;;;;;5035158;28;20451;-73
2021/04/23 12:28:36;;;;;;;4.07;1.17;;;;;;;;;;5035835;28;20471;-69
2021/04/23 12:31:16;;;;;;;4.60;1.87;;;;;;;;;;4976247;28;20459;-70
2021/04/23 12:33:45;;;;;;;9.83;1.77;;;;;;;;;;5028551;28;20514;-71
2021/04/23 12:36:16;;;;;;;8.10;2.30;;;;;;;;;;5035415;28;20457;-70
2021/04/23 12:38:46;;;;;;;7.00;2.30;;;;;;;;;;5035051;28;20463;-70
2021/04/23 12:41:15;;;;;;;7.23;2.37;;;;;;;;;;5036549;28;20569;-70
2021/04/23 12:43:42;;;;;;;8.67;2.93;;;;;;;;;;5038033;28;20483;-70
2021/04/23 12:46:19;;;;;;;5.80;2.13;;;;;;;;;;5037239;28;20740;-70
2021/04/23 12:48:54;;;;;;;6.27;2.00;;;;;;;;;;5037561;28;20462;-69
2021/04/23 12:51:21;;;;;;;6.37;2.03;;;;;;;;;;5037438;28;20469;-70
2021/04/23 12:53:52;;;;;;;5.63;1.70;;;;;;;;;;5038050;28;20552;-71
2021/04/23 12:56:21;;;;;;;7.10;2.60;;;;;;;;;;5038755;28;20469;-69
2021/04/23 12:58:49;;;;;;;8.23;1.53;;;;;;;;;;5039328;28;20466;-70
2021/04/23 13:01:16;;;;;;;4.30;1.10;;;;;;;;;;5038072;28;20454;-69
2021/04/23 13:03:44;;;;;;;8.50;2.43;;;;;;;;;;5037634;28;20470;-69
2021/04/23 13:06:25;;;;;;;9.87;2.63;;;;;;;;;;5037547;28;20854;-69
2021/04/23 13:09:06;;;;;;;6.90;2.53;;;;;;;;;;5038440;28;20463;-70
2021/04/23 13:11:34;;;;;;;5.70;2.07;;;;;;;;;;5039035;28;20886;-69
2021/04/23 13:14:13;;;;;;;11.33;2.80;;;;;;;;;;5038164;28;20520;-71
2021/04/23 13:17:01;;;;;;;2.87;1.23;;;;;;;;;;5018557;28;20454;-70
2021/04/23 13:19:39;;;;;;;6.80;1.13;;;;;;;;;;5015905;28;20463;-69
2021/04/23 13:22:32;;;;;;;7.43;1.63;;;;;;;;;;5018240;28;20621;-68
2021/04/23 13:25:31;;;;;;;6.43;3.13;;;;;;;;;;5017125;28;20464;-71
2021/04/23 13:28:17;;;;;;;7.47;1.93;;;;;;;;;;5001536;28;20470;-71
2021/04/23 13:30:49;;;;;;;4.33;1.93;;;;;;;;;;5019003;28;20525;-70
2021/04/23 13:33:21;;;;;;;4.50;1.93;;;;;;;;;;5018199;28;20501;-70
2021/04/23 13:35:50;;;;;;;3.20;2.13;;;;;;;;;;5018731;28;20447;-70
2021/04/23 13:38:40;;;;;;;3.43;1.73;;;;;;;;;;5036089;28;20755;-70
2021/04/23 13:41:20;;;;;;;4.73;1.67;;;;;;;;;;5037759;28;20468;-70
2021/04/23 13:43:55;;;;;;;3.63;1.63;;;;;;;;;;5035012;28;20520;-70
2021/04/23 13:46:34;;;;;;;6.40;1.50;;;;;;;;;;5018821;28;20469;-70
2021/04/23 13:49:02;;;;;;;5.37;1.67;;;;;;;;;;5023220;28;20463;-70
2021/04/23 13:51:37;;;;;;;8.93;1.83;;;;;;;;;;5018132;28;20467;-72
2021/04/23 13:54:27;;;;;;;7.40;1.53;;;;;;;;;;5016410;28;20580;-72
2021/04/23 13:56:56;;;;;;;3.70;1.70;;;;;;;;;;5018220;28;20745;-69
2021/04/23 13:59:27;;;;;;;8.27;1.97;;;;;;;;;;5016898;28;20452;-72
2021/04/23 14:01:55;;;;;;;7.37;2.70;;;;;;;;;;5020522;28;20530;-69
2021/04/23 14:04:23;;;;;;;6.20;1.90;;;;;;;;;;5038462;28;20447;-70
2021/04/23 14:06:53;;;;;;;4.17;1.60;;;;;;;;;;5037785;28;20766;-71
2021/04/23 14:09:22;;;;;;;6.10;2.57;;;;;;;;;;5037518;28;20459;-70
2021/04/23 14:11:54;;;;;;;7.07;1.53;;;;;;;;;;5038460;28;20750;-70
2021/04/23 14:14:24;;;;;;;7.63;1.97;;;;;;;;;;5038590;28;20486;-69
2021/04/23 14:17:03;;;;;;;5.40;1.20;;;;;;;;;;5037863;28;20545;-70
2021/04/23 14:19:33;;;;;;;8.90;1.40;;;;;;;;;;5038418;28;20557;-70
2021/04/23 14:22:02;;;;;;;5.00;1.30;;;;;;;;;;5037459;28;20898;-71
2021/04/23 14:24:32;;;;;;;4.20;1.33;;;;;;;;;;5035351;28;20859;-70
2021/04/23 14:27:01;;;;;;;12.00;2.60;;;;;;;;;;5035705;28;20489;-70
2021/04/23 14:29:33;;;;;;;8.50;2.37;;;;;;;;;;5037525;28;20577;-70
2021/04/23 14:32:00;;;;;;;2.93;0.83;;;;;;;;;;5017982;28;20459;-70
2021/04/23 14:34:28;;;;;;;3.33;1.20;;;;;;;;;;5017551;28;20506;-70
2021/04/23 14:36:57;;;;;;;7.70;2.60;;;;;;;;;;5024774;28;20770;-70
2021/04/23 14:39:25;;;;;;;8.73;1.70;;;;;;;;;;5038106;28;20498;-70
2021/04/23 14:41:53;;;;;;;5.10;2.60;;;;;;;;;;5036647;28;20494;-70
2021/04/23 14:44:24;;;;;;;2.73;1.10;;;;;;;;;;5037287;28;20530;-70
2021/04/23 14:46:56;;;;;;;6.00;1.47;;;;;;;;;;5036809;28;20494;-70
2021/04/23 14:49:26;;;;;;;2.77;1.40;;;;;;;;;;5037439;28;20462;-70
2021/04/23 14:51:55;;;;;;;4.30;1.60;;;;;;;;;;5035955;28;20459;-70
2021/04/23 14:54:31;;;;;;;4.83;2.33;;;;;;;;;;5035360;28;21008;-70
2021/04/23 14:57:00;;;;;;;6.73;2.60;;;;;;;;;;5036806;28;20461;-72
2021/04/23 14:59:29;;;;;;;4.83;2.50;;;;;;;;;;5037631;28;21037;-70
2021/04/23 15:01:58;;;;;;;3.80;1.67;;;;;;;;;;5037301;28;20860;-71
2021/04/23 15:04:26;;;;;;;5.03;1.30;;;;;;;;;;5035815;28;20470;-70
2021/04/23 15:06:55;;;;;;;4.20;1.80;;;;;;;;;;5035808;28;20459;-70